This is the latest recevied weather packets stored in our database for station/object N5JXS. If no packets are shown the sender has not sent any weather packets the latest 10 day(s).
| Time | Temp. | Humidity | Pressure | Rain* | Wind** | Luminosity | Snow |
|---|---|---|---|---|---|---|---|
| 1777732238 | 7.22° C | 39% | 1026.6 hPa | 0 mm | - | 26 W/m² | - |
| 1777731935 | 7.22° C | 38% | 1026.6 hPa | 0 mm | - | 27 W/m² | - |
| 1777731631 | 6.67° C | 40% | 1026.3 hPa | 0 mm | - | 25 W/m² | - |
| 1777731329 | 5.56° C | 47% | 1026.6 hPa | 0 mm | - | 24 W/m² | - |
| 1777731027 | 5.56° C | 45% | 1026.5 hPa | 0 mm | - | 23 W/m² | - |
| 1777730725 | 5.56° C | 46% | 1026.5 hPa | 0 mm | - | 24 W/m² | - |
| 1777730421 | 5° C | 46% | 1026.3 hPa | 0 mm | - | 29 W/m² | - |
| 1777730117 | 5° C | 44% | 1026.5 hPa | 0 mm | - | 23 W/m² | - |
| 1777729813 | 5° C | 44% | 1026.7 hPa | 0 mm | - | 23 W/m² | - |
| 1777729510 | 4.44° C | 45% | 1026.5 hPa | 0 mm | - | 26 W/m² | - |
| 1777729207 | 4.44° C | 46% | 1026.6 hPa | 0 mm | - | 27 W/m² | - |
| 1777728904 | 3.89° C | 47% | 1026.5 hPa | 0 mm | - | 20 W/m² | - |
| 1777728601 | 3.89° C | 47% | 1026.5 hPa | 0 mm | - | 19 W/m² | - |
| 1777728298 | 3.33° C | 48% | 1026.2 hPa | 0 mm | - | 23 W/m² | - |
| 1777727995 | 2.78° C | 50% | 1026.5 hPa | 0 mm | - | 19 W/m² | - |
| 1777727692 | 2.78° C | 51% | 1026.3 hPa | 0 mm | - | 18 W/m² | - |
| 1777727388 | 2.22° C | 51% | 1026.2 hPa | 0 mm | - | 17 W/m² | - |
| 1777727086 | 1.67° C | 51% | 1026.2 hPa | 0 mm | - | 16 W/m² | - |
| 1777726784 | 1.67° C | 52% | 1026.2 hPa | 0 mm | - | 16 W/m² | - |
| 1777726480 | 1.67° C | 53% | 1026.1 hPa | 0 mm | - | 14 W/m² | - |
| 1777726177 | 1.67° C | 53% | 1026.1 hPa | 0 mm | - | 13 W/m² | - |
| 1777725873 | 1.67° C | 53% | 1026.2 hPa | 0 mm | - | 12 W/m² | - |
| 1777725572 | 1.11° C | 52% | 1026 hPa | 0 mm | - | 11 W/m² | - |
| 1777725269 | 1.11° C | 53% | 1025.8 hPa | 0 mm | - | 11 W/m² | - |
| 1777724966 | 1.11° C | 53% | 1025.7 hPa | 0 mm | - | 9 W/m² | - |
* Rain latest hour (hover to see other rain measurements)
** Current wind speed in m/s (hover to see current wind gust speed)